sensor_id;sensor_type;location;lat;lon;timestamp;pressure;altitude;pressure_sealevel;temperature;humidity
44359;BME280;30077;52.474;13.326;2022-10-03T00:01:45;101127.06;;;9.79;100.00
44359;BME280;30077;52.474;13.326;2022-10-03T00:12:13;101138.75;;;9.75;100.00
44359;BME280;30077;52.474;13.326;2022-10-03T00:17:24;101135.47;;;9.93;100.00
44359;BME280;30077;52.474;13.326;2022-10-03T00:22:53;101139.88;;;9.94;100.00
44359;BME280;30077;52.474;13.326;2022-10-03T00:28:10;101149.19;;;10.07;100.00
44359;BME280;30077;52.474;13.326;2022-10-03T00:33:36;101155.09;;;10.16;100.00
44359;BME280;30077;52.474;13.326;2022-10-03T00:44:48;101172.34;;;10.32;100.00
44359;BME280;30077;52.474;13.326;2022-10-03T00:55:15;101171.91;;;10.44;100.00
44359;BME280;30077;52.474;13.326;2022-10-03T01:00:25;101174.25;;;10.53;100.00
44359;BME280;30077;52.474;13.326;2022-10-03T01:05:30;101174.25;;;10.53;100.00
44359;BME280;30077;52.474;13.326;2022-10-03T01:10:52;101170.69;;;10.53;100.00
44359;BME280;30077;52.474;13.326;2022-10-03T01:16:20;101179.91;;;10.44;100.00
44359;BME280;30077;52.474;13.326;2022-10-03T01:21:42;101183.03;;;10.32;100.00
44359;BME280;30077;52.474;13.326;2022-10-03T01:27:05;101190.28;;;10.27;100.00
44359;BME280;30077;52.474;13.326;2022-10-03T01:32:13;101196.38;;;10.30;100.00
44359;BME280;30077;52.474;13.326;2022-10-03T01:37:29;101193.34;;;10.41;100.00
44359;BME280;30077;52.474;13.326;2022-10-03T01:42:37;101196.25;;;10.35;100.00
44359;BME280;30077;52.474;13.326;2022-10-03T01:47:47;101201.41;;;10.40;100.00
44359;BME280;30077;52.474;13.326;2022-10-03T01:53:25;101204.84;;;10.43;100.00
44359;BME280;30077;52.474;13.326;2022-10-03T01:58:47;101196.94;;;10.40;100.00
44359;BME280;30077;52.474;13.326;2022-10-03T02:03:56;101211.31;;;10.36;100.00
44359;BME280;30077;52.474;13.326;2022-10-03T02:14:45;101217.50;;;10.62;100.00
44359;BME280;30077;52.474;13.326;2022-10-03T02:19:56;101226.09;;;10.70;100.00
44359;BME280;30077;52.474;13.326;2022-10-03T02:25:10;101226.00;;;10.73;100.00
44359;BME280;30077;52.474;13.326;2022-10-03T02:30:18;101225.03;;;10.75;100.00
44359;BME280;30077;52.474;13.326;2022-10-03T02:36:29;101232.75;;;10.83;100.00
44359;BME280;30077;52.474;13.326;2022-10-03T02:46:44;101235.16;;;10.89;100.00
44359;BME280;30077;52.474;13.326;2022-10-03T03:13:46;101247.63;;;10.89;100.00
44359;BME280;30077;52.474;13.326;2022-10-03T03:24:16;101247.25;;;10.76;100.00
44359;BME280;30077;52.474;13.326;2022-10-03T03:40:23;101256.31;;;10.70;100.00
44359;BME280;30077;52.474;13.326;2022-10-03T03:45:37;101257.03;;;10.75;100.00
44359;BME280;30077;52.474;13.326;2022-10-03T03:50:50;101257.56;;;10.85;100.00
44359;BME280;30077;52.474;13.326;2022-10-03T03:56:19;101257.56;;;10.85;100.00
44359;BME280;30077;52.474;13.326;2022-10-03T04:01:44;101269.94;;;10.88;100.00
44359;BME280;30077;52.474;13.326;2022-10-03T04:07:26;101274.34;;;10.89;100.00
44359;BME280;30077;52.474;13.326;2022-10-03T04:13:03;101288.63;;;10.88;100.00
44359;BME280;30077;52.474;13.326;2022-10-03T04:29:42;101298.44;;;10.87;100.00
44359;BME280;30077;52.474;13.326;2022-10-03T04:40:39;101292.88;;;10.93;100.00
44359;BME280;30077;52.474;13.326;2022-10-03T04:51:44;101293.88;;;10.89;100.00
44359;BME280;30077;52.474;13.326;2022-10-03T04:56:58;101293.09;;;10.87;100.00
44359;BME280;30077;52.474;13.326;2022-10-03T05:02:15;101300.13;;;10.90;100.00
44359;BME280;30077;52.474;13.326;2022-10-03T05:39:24;101331.88;;;10.97;100.00
44359;BME280;30077;52.474;13.326;2022-10-03T05:44:39;101344.50;;;10.92;100.00
44359;BME280;30077;52.474;13.326;2022-10-03T06:00:22;101344.50;;;10.92;100.00
44359;BME280;30077;52.474;13.326;2022-10-03T06:05:35;101353.06;;;11.02;100.00
44359;BME280;30077;52.474;13.326;2022-10-03T06:11:09;101352.78;;;11.09;100.00
44359;BME280;30077;52.474;13.326;2022-10-03T06:27:26;101387.22;;;11.17;100.00
44359;BME280;30077;52.474;13.326;2022-10-03T07:05:44;101409.50;;;11.65;100.00
44359;BME280;30077;52.474;13.326;2022-10-03T07:32:25;101440.81;;;12.10;100.00
44359;BME280;30077;52.474;13.326;2022-10-03T07:43:43;101441.00;;;12.27;100.00
44359;BME280;30077;52.474;13.326;2022-10-03T07:49:02;101453.53;;;12.48;100.00
44359;BME280;30077;52.474;13.326;2022-10-03T07:54:19;101456.81;;;12.77;100.00
44359;BME280;30077;52.474;13.326;2022-10-03T08:05:45;101477.50;;;12.73;98.34
44359;BME280;30077;52.474;13.326;2022-10-03T08:27:43;101486.28;;;13.19;95.50
44359;BME280;30077;52.474;13.326;2022-10-03T08:38:41;101506.03;;;13.17;94.04
44359;BME280;30077;52.474;13.326;2022-10-03T09:16:43;101511.22;;;13.83;87.71
44359;BME280;30077;52.474;13.326;2022-10-03T09:27:16;101502.19;;;13.85;87.17
44359;BME280;30077;52.474;13.326;2022-10-03T09:48:33;101514.94;;;14.38;84.38
44359;BME280;30077;52.474;13.326;2022-10-03T10:15:25;101532.72;;;14.79;82.49
44359;BME280;30077;52.474;13.326;2022-10-03T10:20:47;101532.19;;;15.07;79.15
44359;BME280;30077;52.474;13.326;2022-10-03T10:26:16;101521.81;;;14.82;80.58
44359;BME280;30077;52.474;13.326;2022-10-03T11:04:47;101512.19;;;15.66;78.36
44359;BME280;30077;52.474;13.326;2022-10-03T11:25:54;101517.06;;;15.58;81.00
44359;BME280;30077;52.474;13.326;2022-10-03T11:31:34;101517.53;;;15.83;81.36
44359;BME280;30077;52.474;13.326;2022-10-03T11:42:31;101528.06;;;15.71;82.26
44359;BME280;30077;52.474;13.326;2022-10-03T11:47:54;101529.09;;;15.68;84.63
44359;BME280;30077;52.474;13.326;2022-10-03T11:58:28;101522.25;;;15.96;85.62
44359;BME280;30077;52.474;13.326;2022-10-03T12:03:36;101516.31;;;15.89;86.35
44359;BME280;30077;52.474;13.326;2022-10-03T12:14:20;101511.53;;;14.54;100.00
44359;BME280;30077;52.474;13.326;2022-10-03T12:19:44;101496.88;;;14.61;100.00
44359;BME280;30077;52.474;13.326;2022-10-03T12:24:59;101494.56;;;14.89;99.53
44359;BME280;30077;52.474;13.326;2022-10-03T12:30:08;101488.16;;;15.79;92.46
44359;BME280;30077;52.474;13.326;2022-10-03T12:35:43;101490.78;;;15.80;88.43
44359;BME280;30077;52.474;13.326;2022-10-03T12:41:09;101497.75;;;15.15;89.65
44359;BME280;30077;52.474;13.326;2022-10-03T12:46:15;101503.16;;;15.32;89.69
44359;BME280;30077;52.474;13.326;2022-10-03T12:56:43;101488.22;;;15.95;84.07
44359;BME280;30077;52.474;13.326;2022-10-03T13:07:38;101487.34;;;15.94;80.47
44359;BME280;30077;52.474;13.326;2022-10-03T13:13:14;101479.72;;;15.69;81.96
44359;BME280;30077;52.474;13.326;2022-10-03T13:23:58;101484.44;;;15.64;80.99
44359;BME280;30077;52.474;13.326;2022-10-03T13:29:20;101489.22;;;15.76;79.57
44359;BME280;30077;52.474;13.326;2022-10-03T13:34:27;101485.75;;;15.90;77.32
44359;BME280;30077;52.474;13.326;2022-10-03T13:39:51;101497.22;;;15.94;76.83
44359;BME280;30077;52.474;13.326;2022-10-03T13:44:59;101499.16;;;15.92;76.45
44359;BME280;30077;52.474;13.326;2022-10-03T13:50:06;101487.31;;;15.78;77.81
44359;BME280;30077;52.474;13.326;2022-10-03T13:55:23;101500.91;;;15.75;78.19
44359;BME280;30077;52.474;13.326;2022-10-03T14:00:32;101506.78;;;15.49;80.07
44359;BME280;30077;52.474;13.326;2022-10-03T14:11:16;101502.31;;;14.96;84.89
44359;BME280;30077;52.474;13.326;2022-10-03T14:16:33;101506.44;;;14.85;86.24
44359;BME280;30077;52.474;13.326;2022-10-03T14:22:03;101503.56;;;14.88;85.85
44359;BME280;30077;52.474;13.326;2022-10-03T14:38:11;101487.25;;;15.28;80.21
44359;BME280;30077;52.474;13.326;2022-10-03T14:48:37;101483.78;;;15.26;80.59
44359;BME280;30077;52.474;13.326;2022-10-03T14:53:45;101485.75;;;15.22;80.83
44359;BME280;30077;52.474;13.326;2022-10-03T14:58:51;101488.19;;;15.09;80.94
44359;BME280;30077;52.474;13.326;2022-10-03T15:04:03;101481.63;;;14.98;81.58
44359;BME280;30077;52.474;13.326;2022-10-03T15:09:11;101475.06;;;15.03;80.99
44359;BME280;30077;52.474;13.326;2022-10-03T15:14:12;101481.47;;;15.18;79.99
44359;BME280;30077;52.474;13.326;2022-10-03T15:19:18;101475.94;;;15.21;79.38
44359;BME280;30077;52.474;13.326;2022-10-03T15:24:24;101481.78;;;15.12;80.68
44359;BME280;30077;52.474;13.326;2022-10-03T15:29:28;101474.84;;;15.08;81.47
44359;BME280;30077;52.474;13.326;2022-10-03T15:34:32;101478.53;;;15.05;81.26
44359;BME280;30077;52.474;13.326;2022-10-03T15:39:39;101482.44;;;15.00;81.56
44359;BME280;30077;52.474;13.326;2022-10-03T15:50:06;101476.06;;;14.83;82.75
44359;BME280;30077;52.474;13.326;2022-10-03T16:00:30;101485.31;;;14.59;85.38
44359;BME280;30077;52.474;13.326;2022-10-03T16:05:32;101482.06;;;14.52;86.27
44359;BME280;30077;52.474;13.326;2022-10-03T16:10:50;101483.22;;;14.47;87.26
44359;BME280;30077;52.474;13.326;2022-10-03T16:16:17;101485.81;;;14.48;87.98
44359;BME280;30077;52.474;13.326;2022-10-03T16:21:29;101487.91;;;14.41;88.69
44359;BME280;30077;52.474;13.326;2022-10-03T16:26:54;101496.41;;;14.32;90.27
44359;BME280;30077;52.474;13.326;2022-10-03T16:32:05;101491.34;;;14.26;92.08
44359;BME280;30077;52.474;13.326;2022-10-03T16:37:16;101497.00;;;14.20;93.05
44359;BME280;30077;52.474;13.326;2022-10-03T16:42:20;101488.44;;;14.12;93.57
44359;BME280;30077;52.474;13.326;2022-10-03T16:47:32;101477.69;;;14.12;93.56
44359;BME280;30077;52.474;13.326;2022-10-03T16:52:38;101472.78;;;14.03;94.43
44359;BME280;30077;52.474;13.326;2022-10-03T16:57:43;101480.97;;;14.00;95.69
44359;BME280;30077;52.474;13.326;2022-10-03T17:02:47;101476.16;;;13.87;96.72
44359;BME280;30077;52.474;13.326;2022-10-03T17:07:50;101480.25;;;13.76;97.11
44359;BME280;30077;52.474;13.326;2022-10-03T17:12:55;101480.91;;;13.62;98.45
44359;BME280;30077;52.474;13.326;2022-10-03T17:18:12;101481.09;;;13.57;99.68
44359;BME280;30077;52.474;13.326;2022-10-03T17:23:38;101487.06;;;13.43;100.00
44359;BME280;30077;52.474;13.326;2022-10-03T17:28:52;101482.63;;;13.42;100.00
44359;BME280;30077;52.474;13.326;2022-10-03T17:34:03;101484.91;;;13.31;100.00
44359;BME280;30077;52.474;13.326;2022-10-03T17:39:16;101487.81;;;13.27;100.00
44359;BME280;30077;52.474;13.326;2022-10-03T17:44:37;101487.28;;;13.17;100.00
44359;BME280;30077;52.474;13.326;2022-10-03T17:49:52;101487.69;;;13.08;100.00
44359;BME280;30077;52.474;13.326;2022-10-03T17:54:59;101494.66;;;13.12;100.00
44359;BME280;30077;52.474;13.326;2022-10-03T18:00:04;101493.06;;;13.08;100.00
44359;BME280;30077;52.474;13.326;2022-10-03T18:05:16;101492.78;;;13.14;100.00
44359;BME280;30077;52.474;13.326;2022-10-03T18:10:20;101506.50;;;13.06;100.00
44359;BME280;30077;52.474;13.326;2022-10-03T18:15:36;101503.41;;;12.95;100.00
44359;BME280;30077;52.474;13.326;2022-10-03T18:20:49;101504.34;;;12.72;100.00
44359;BME280;30077;52.474;13.326;2022-10-03T18:26:00;101488.84;;;12.58;100.00
44359;BME280;30077;52.474;13.326;2022-10-03T18:31:07;101477.63;;;12.48;100.00
44359;BME280;30077;52.474;13.326;2022-10-03T18:36:21;101477.94;;;12.41;100.00
44359;BME280;30077;52.474;13.326;2022-10-03T18:41:23;101482.59;;;12.36;100.00
44359;BME280;30077;52.474;13.326;2022-10-03T18:46:27;101483.59;;;12.33;100.00
44359;BME280;30077;52.474;13.326;2022-10-03T18:51:36;101484.63;;;12.29;100.00
44359;BME280;30077;52.474;13.326;2022-10-03T18:56:38;101488.25;;;12.28;100.00
44359;BME280;30077;52.474;13.326;2022-10-03T19:01:47;101485.91;;;12.19;100.00
44359;BME280;30077;52.474;13.326;2022-10-03T19:06:52;101485.91;;;12.19;100.00
44359;BME280;30077;52.474;13.326;2022-10-03T19:17:23;101482.72;;;12.33;100.00
44359;BME280;30077;52.474;13.326;2022-10-03T19:22:39;101494.16;;;12.36;100.00
44359;BME280;30077;52.474;13.326;2022-10-03T19:28:00;101492.44;;;12.35;100.00
44359;BME280;30077;52.474;13.326;2022-10-03T19:33:05;101494.34;;;12.32;100.00
44359;BME280;30077;52.474;13.326;2022-10-03T19:38:14;101492.66;;;12.29;100.00
44359;BME280;30077;52.474;13.326;2022-10-03T19:48:47;101484.53;;;12.09;100.00
44359;BME280;30077;52.474;13.326;2022-10-03T19:53:49;101488.25;;;12.04;100.00
44359;BME280;30077;52.474;13.326;2022-10-03T19:59:00;101482.97;;;12.03;100.00
44359;BME280;30077;52.474;13.326;2022-10-03T20:04:03;101491.75;;;12.07;100.00
44359;BME280;30077;52.474;13.326;2022-10-03T20:09:05;101493.38;;;12.11;100.00
44359;BME280;30077;52.474;13.326;2022-10-03T20:14:14;101486.03;;;12.16;100.00
44359;BME280;30077;52.474;13.326;2022-10-03T20:19:20;101489.31;;;12.24;100.00
44359;BME280;30077;52.474;13.326;2022-10-03T20:24:36;101487.44;;;12.26;100.00
44359;BME280;30077;52.474;13.326;2022-10-03T20:29:45;101488.06;;;12.33;100.00
44359;BME280;30077;52.474;13.326;2022-10-03T20:34:53;101476.50;;;12.32;100.00
44359;BME280;30077;52.474;13.326;2022-10-03T20:40:01;101488.00;;;12.34;100.00
44359;BME280;30077;52.474;13.326;2022-10-03T20:45:14;101493.41;;;12.33;100.00
44359;BME280;30077;52.474;13.326;2022-10-03T20:50:31;101494.28;;;12.33;100.00
44359;BME280;30077;52.474;13.326;2022-10-03T20:55:41;101480.69;;;12.39;100.00
44359;BME280;30077;52.474;13.326;2022-10-03T21:00:48;101499.28;;;12.42;100.00
44359;BME280;30077;52.474;13.326;2022-10-03T21:05:52;101495.78;;;12.40;100.00
44359;BME280;30077;52.474;13.326;2022-10-03T21:10:56;101501.16;;;12.40;100.00
44359;BME280;30077;52.474;13.326;2022-10-03T21:15:59;101497.66;;;12.38;100.00
44359;BME280;30077;52.474;13.326;2022-10-03T21:21:14;101498.28;;;12.45;100.00
44359;BME280;30077;52.474;13.326;2022-10-03T21:26:25;101492.56;;;12.32;100.00
44359;BME280;30077;52.474;13.326;2022-10-03T21:31:40;101488.59;;;12.42;100.00
44359;BME280;30077;52.474;13.326;2022-10-03T21:41:55;101486.38;;;12.30;100.00
44359;BME280;30077;52.474;13.326;2022-10-03T21:47:20;101488.81;;;12.36;100.00
44359;BME280;30077;52.474;13.326;2022-10-03T21:52:32;101481.84;;;12.32;100.00
44359;BME280;30077;52.474;13.326;2022-10-03T22:07:51;101480.22;;;12.28;100.00
44359;BME280;30077;52.474;13.326;2022-10-03T22:12:58;101475.00;;;12.25;100.00
44359;BME280;30077;52.474;13.326;2022-10-03T22:18:09;101475.63;;;12.32;100.00
44359;BME280;30077;52.474;13.326;2022-10-03T22:23:25;101480.78;;;12.36;100.00
44359;BME280;30077;52.474;13.326;2022-10-03T22:28:53;101468.47;;;12.32;100.00
44359;BME280;30077;52.474;13.326;2022-10-03T22:34:20;101469.09;;;12.39;100.00
44359;BME280;30077;52.474;13.326;2022-10-03T22:39:26;101464.81;;;12.35;100.00
44359;BME280;30077;52.474;13.326;2022-10-03T22:44:31;101461.69;;;12.45;100.00
44359;BME280;30077;52.474;13.326;2022-10-03T22:49:37;101459.28;;;12.39;100.00
44359;BME280;30077;52.474;13.326;2022-10-03T22:54:41;101453.06;;;12.39;100.00
44359;BME280;30077;52.474;13.326;2022-10-03T22:59:50;101460.31;;;12.35;100.00
44359;BME280;30077;52.474;13.326;2022-10-03T23:04:56;101458.31;;;12.40;100.00
44359;BME280;30077;52.474;13.326;2022-10-03T23:15:22;101463.75;;;12.39;100.00
44359;BME280;30077;52.474;13.326;2022-10-03T23:42:19;101463.31;;;12.49;100.00
44359;BME280;30077;52.474;13.326;2022-10-03T23:47:25;101472.25;;;12.48;100.00
44359;BME280;30077;52.474;13.326;2022-10-03T23:52:46;101472.16;;;12.51;100.00
44359;BME280;30077;52.474;13.326;2022-10-03T23:57:48;101481.97;;;12.51;100.00
